sensor_id;sensor_type;location;lat;lon;timestamp;P1;durP1;ratioP1;P2;durP2;ratioP2
69207;SDS011;56321;47.662;8.878;2022-09-01T00:01:27;8.65;;;4.85;;
69207;SDS011;56321;47.662;8.878;2022-09-01T00:03:54;8.88;;;4.60;;
69207;SDS011;56321;47.662;8.878;2022-09-01T00:06:23;10.17;;;4.57;;
69207;SDS011;56321;47.662;8.878;2022-09-01T00:08:53;7.95;;;4.53;;
69207;SDS011;56321;47.662;8.878;2022-09-01T00:11:20;8.80;;;4.82;;
69207;SDS011;56321;47.662;8.878;2022-09-01T00:13:48;10.40;;;4.80;;
69207;SDS011;56321;47.662;8.878;2022-09-01T00:16:14;10.30;;;4.40;;
69207;SDS011;56321;47.662;8.878;2022-09-01T00:18:42;8.90;;;4.78;;
69207;SDS011;56321;47.662;8.878;2022-09-01T00:21:11;9.18;;;4.93;;
69207;SDS011;56321;47.662;8.878;2022-09-01T00:23:37;8.77;;;4.88;;
69207;SDS011;56321;47.662;8.878;2022-09-01T00:26:03;9.93;;;4.80;;
69207;SDS011;56321;47.662;8.878;2022-09-01T00:28:31;9.77;;;4.85;;
69207;SDS011;56321;47.662;8.878;2022-09-01T00:30:58;10.02;;;5.13;;
69207;SDS011;56321;47.662;8.878;2022-09-01T00:33:23;9.47;;;5.00;;
69207;SDS011;56321;47.662;8.878;2022-09-01T00:35:49;9.27;;;5.20;;
69207;SDS011;56321;47.662;8.878;2022-09-01T00:38:14;10.30;;;4.97;;
69207;SDS011;56321;47.662;8.878;2022-09-01T00:40:39;9.90;;;5.20;;
69207;SDS011;56321;47.662;8.878;2022-09-01T00:43:12;9.57;;;5.20;;
69207;SDS011;56321;47.662;8.878;2022-09-01T00:45:59;10.52;;;5.10;;
69207;SDS011;56321;47.662;8.878;2022-09-01T00:48:24;10.30;;;5.65;;
69207;SDS011;56321;47.662;8.878;2022-09-01T00:50:50;9.77;;;5.00;;
69207;SDS011;56321;47.662;8.878;2022-09-01T00:53:16;9.40;;;5.35;;
69207;SDS011;56321;47.662;8.878;2022-09-01T00:55:41;9.70;;;5.00;;
69207;SDS011;56321;47.662;8.878;2022-09-01T00:58:07;12.43;;;5.80;;
69207;SDS011;56321;47.662;8.878;2022-09-01T01:00:34;10.40;;;5.53;;
69207;SDS011;56321;47.662;8.878;2022-09-01T01:03:08;9.18;;;4.93;;
69207;SDS011;56321;47.662;8.878;2022-09-01T01:05:36;9.37;;;5.27;;
69207;SDS011;56321;47.662;8.878;2022-09-01T01:08:05;9.98;;;5.28;;
69207;SDS011;56321;47.662;8.878;2022-09-01T01:10:32;10.25;;;4.75;;
69207;SDS011;56321;47.662;8.878;2022-09-01T01:13:00;9.93;;;5.28;;
69207;SDS011;56321;47.662;8.878;2022-09-01T01:15:27;10.43;;;5.47;;
69207;SDS011;56321;47.662;8.878;2022-09-01T01:17:53;10.70;;;5.60;;
69207;SDS011;56321;47.662;8.878;2022-09-01T01:20:19;10.25;;;5.50;;
69207;SDS011;56321;47.662;8.878;2022-09-01T01:25:48;9.23;;;5.35;;
69207;SDS011;56321;47.662;8.878;2022-09-01T01:28:20;11.45;;;5.25;;
69207;SDS011;56321;47.662;8.878;2022-09-01T01:30:49;9.77;;;5.73;;
69207;SDS011;56321;47.662;8.878;2022-09-01T01:33:18;9.45;;;5.20;;
69207;SDS011;56321;47.662;8.878;2022-09-01T01:35:46;9.07;;;4.93;;
69207;SDS011;56321;47.662;8.878;2022-09-01T01:38:12;9.80;;;5.13;;
69207;SDS011;56321;47.662;8.878;2022-09-01T01:40:39;9.50;;;4.93;;
69207;SDS011;56321;47.662;8.878;2022-09-01T01:43:05;8.77;;;4.70;;
69207;SDS011;56321;47.662;8.878;2022-09-01T01:45:31;9.38;;;5.05;;
69207;SDS011;56321;47.662;8.878;2022-09-01T01:47:57;10.70;;;5.20;;
69207;SDS011;56321;47.662;8.878;2022-09-01T01:50:26;9.60;;;4.50;;
69207;SDS011;56321;47.662;8.878;2022-09-01T01:52:57;9.82;;;5.22;;
69207;SDS011;56321;47.662;8.878;2022-09-01T01:55:24;9.68;;;5.05;;
69207;SDS011;56321;47.662;8.878;2022-09-01T01:57:53;10.15;;;4.57;;
69207;SDS011;56321;47.662;8.878;2022-09-01T02:00:21;8.60;;;4.43;;
69207;SDS011;56321;47.662;8.878;2022-09-01T02:02:49;10.32;;;5.15;;
69207;SDS011;56321;47.662;8.878;2022-09-01T02:07:47;9.07;;;5.00;;
69207;SDS011;56321;47.662;8.878;2022-09-01T02:10:14;10.02;;;4.95;;
69207;SDS011;56321;47.662;8.878;2022-09-01T02:12:40;9.73;;;4.93;;
69207;SDS011;56321;47.662;8.878;2022-09-01T02:15:06;9.70;;;5.80;;
69207;SDS011;56321;47.662;8.878;2022-09-01T02:17:32;8.90;;;5.15;;
69207;SDS011;56321;47.662;8.878;2022-09-01T02:19:57;10.07;;;5.40;;
69207;SDS011;56321;47.662;8.878;2022-09-01T02:22:23;10.63;;;5.43;;
69207;SDS011;56321;47.662;8.878;2022-09-01T02:24:49;11.70;;;6.37;;
69207;SDS011;56321;47.662;8.878;2022-09-01T02:27:16;11.27;;;6.82;;
69207;SDS011;56321;47.662;8.878;2022-09-01T02:29:45;11.52;;;7.60;;
69207;SDS011;56321;47.662;8.878;2022-09-01T02:32:11;13.10;;;8.77;;
69207;SDS011;56321;47.662;8.878;2022-09-01T02:34:36;15.73;;;9.50;;
69207;SDS011;56321;47.662;8.878;2022-09-01T02:37:03;14.48;;;9.13;;
69207;SDS011;56321;47.662;8.878;2022-09-01T02:39:30;13.40;;;8.70;;
69207;SDS011;56321;47.662;8.878;2022-09-01T02:41:57;15.00;;;9.60;;
69207;SDS011;56321;47.662;8.878;2022-09-01T02:44:25;13.23;;;8.32;;
69207;SDS011;56321;47.662;8.878;2022-09-01T02:46:51;13.40;;;8.40;;
69207;SDS011;56321;47.662;8.878;2022-09-01T02:49:18;13.23;;;8.30;;
69207;SDS011;56321;47.662;8.878;2022-09-01T02:51:50;12.37;;;7.93;;
69207;SDS011;56321;47.662;8.878;2022-09-01T02:54:21;12.82;;;8.45;;
69207;SDS011;56321;47.662;8.878;2022-09-01T02:56:49;14.68;;;9.75;;
69207;SDS011;56321;47.662;8.878;2022-09-01T02:59:18;13.98;;;9.02;;
69207;SDS011;56321;47.662;8.878;2022-09-01T03:01:46;12.52;;;7.72;;
69207;SDS011;56321;47.662;8.878;2022-09-01T03:04:12;11.73;;;7.07;;
69207;SDS011;56321;47.662;8.878;2022-09-01T03:06:38;13.68;;;8.20;;
69207;SDS011;56321;47.662;8.878;2022-09-01T03:09:05;11.82;;;7.28;;
69207;SDS011;56321;47.662;8.878;2022-09-01T03:11:34;12.85;;;7.47;;
69207;SDS011;56321;47.662;8.878;2022-09-01T03:14:01;13.40;;;8.07;;
69207;SDS011;56321;47.662;8.878;2022-09-01T03:16:27;13.77;;;8.30;;
69207;SDS011;56321;47.662;8.878;2022-09-01T03:18:54;11.10;;;7.45;;
69207;SDS011;56321;47.662;8.878;2022-09-01T03:21:20;13.60;;;8.40;;
69207;SDS011;56321;47.662;8.878;2022-09-01T03:23:47;13.10;;;8.63;;
69207;SDS011;56321;47.662;8.878;2022-09-01T03:26:14;12.50;;;7.50;;
69207;SDS011;56321;47.662;8.878;2022-09-01T03:28:42;14.20;;;8.02;;
69207;SDS011;56321;47.662;8.878;2022-09-01T03:31:08;13.50;;;8.27;;
69207;SDS011;56321;47.662;8.878;2022-09-01T03:33:34;12.07;;;7.47;;
69207;SDS011;56321;47.662;8.878;2022-09-01T03:36:00;13.13;;;7.95;;
69207;SDS011;56321;47.662;8.878;2022-09-01T03:38:26;11.67;;;7.43;;
69207;SDS011;56321;47.662;8.878;2022-09-01T03:40:53;12.25;;;7.90;;
69207;SDS011;56321;47.662;8.878;2022-09-01T03:43:24;12.07;;;7.60;;
69207;SDS011;56321;47.662;8.878;2022-09-01T03:45:51;13.02;;;8.32;;
69207;SDS011;56321;47.662;8.878;2022-09-01T03:48:19;12.10;;;7.17;;
69207;SDS011;56321;47.662;8.878;2022-09-01T03:50:46;12.80;;;7.97;;
69207;SDS011;56321;47.662;8.878;2022-09-01T03:53:15;13.45;;;8.00;;
69207;SDS011;56321;47.662;8.878;2022-09-01T03:55:45;14.32;;;8.90;;
69207;SDS011;56321;47.662;8.878;2022-09-01T03:58:12;13.60;;;8.40;;
69207;SDS011;56321;47.662;8.878;2022-09-01T04:00:44;13.63;;;8.57;;
69207;SDS011;56321;47.662;8.878;2022-09-01T04:03:13;12.30;;;7.68;;
69207;SDS011;56321;47.662;8.878;2022-09-01T04:05:41;14.30;;;8.77;;
69207;SDS011;56321;47.662;8.878;2022-09-01T04:08:08;14.00;;;8.60;;
69207;SDS011;56321;47.662;8.878;2022-09-01T04:10:38;12.40;;;7.60;;
69207;SDS011;56321;47.662;8.878;2022-09-01T04:13:20;13.47;;;8.17;;
69207;SDS011;56321;47.662;8.878;2022-09-01T04:15:49;12.85;;;8.73;;
69207;SDS011;56321;47.662;8.878;2022-09-01T04:18:15;14.95;;;8.75;;
69207;SDS011;56321;47.662;8.878;2022-09-01T04:20:49;13.65;;;7.97;;
69207;SDS011;56321;47.662;8.878;2022-09-01T04:25:50;13.00;;;7.73;;
69207;SDS011;56321;47.662;8.878;2022-09-01T04:28:18;14.70;;;8.75;;
69207;SDS011;56321;47.662;8.878;2022-09-01T04:30:54;14.75;;;8.52;;
69207;SDS011;56321;47.662;8.878;2022-09-01T04:33:23;13.80;;;8.65;;
69207;SDS011;56321;47.662;8.878;2022-09-01T04:35:50;14.77;;;9.18;;
69207;SDS011;56321;47.662;8.878;2022-09-01T04:38:18;13.90;;;8.23;;
69207;SDS011;56321;47.662;8.878;2022-09-01T04:40:46;12.43;;;6.90;;
69207;SDS011;56321;47.662;8.878;2022-09-01T04:43:13;13.70;;;8.73;;
69207;SDS011;56321;47.662;8.878;2022-09-01T04:45:39;12.82;;;8.38;;
69207;SDS011;56321;47.662;8.878;2022-09-01T04:48:05;12.90;;;8.23;;
69207;SDS011;56321;47.662;8.878;2022-09-01T04:50:31;13.43;;;8.13;;
69207;SDS011;56321;47.662;8.878;2022-09-01T04:52:58;14.23;;;8.27;;
69207;SDS011;56321;47.662;8.878;2022-09-01T04:55:25;13.57;;;8.55;;
69207;SDS011;56321;47.662;8.878;2022-09-01T04:57:55;12.70;;;8.40;;
69207;SDS011;56321;47.662;8.878;2022-09-01T05:00:23;12.90;;;8.30;;
69207;SDS011;56321;47.662;8.878;2022-09-01T05:02:51;11.48;;;7.25;;
69207;SDS011;56321;47.662;8.878;2022-09-01T05:05:22;12.88;;;7.70;;
69207;SDS011;56321;47.662;8.878;2022-09-01T05:07:48;12.55;;;7.32;;
69207;SDS011;56321;47.662;8.878;2022-09-01T05:10:19;11.38;;;6.82;;
69207;SDS011;56321;47.662;8.878;2022-09-01T05:12:46;11.33;;;6.80;;
69207;SDS011;56321;47.662;8.878;2022-09-01T05:15:13;11.13;;;6.30;;
69207;SDS011;56321;47.662;8.878;2022-09-01T05:17:39;12.20;;;7.47;;
69207;SDS011;56321;47.662;8.878;2022-09-01T05:20:05;12.52;;;7.45;;
69207;SDS011;56321;47.662;8.878;2022-09-01T05:22:32;10.77;;;6.40;;
69207;SDS011;56321;47.662;8.878;2022-09-01T05:24:58;10.98;;;6.63;;
69207;SDS011;56321;47.662;8.878;2022-09-01T05:27:37;10.77;;;6.45;;
69207;SDS011;56321;47.662;8.878;2022-09-01T05:30:07;11.30;;;6.53;;
69207;SDS011;56321;47.662;8.878;2022-09-01T05:32:33;11.20;;;6.78;;
69207;SDS011;56321;47.662;8.878;2022-09-01T05:35:01;11.83;;;7.20;;
69207;SDS011;56321;47.662;8.878;2022-09-01T05:37:32;11.18;;;6.57;;
69207;SDS011;56321;47.662;8.878;2022-09-01T05:40:04;11.38;;;7.22;;
69207;SDS011;56321;47.662;8.878;2022-09-01T05:42:33;11.63;;;6.85;;
69207;SDS011;56321;47.662;8.878;2022-09-01T05:44:59;11.33;;;6.80;;
69207;SDS011;56321;47.662;8.878;2022-09-01T05:47:25;11.88;;;6.93;;
69207;SDS011;56321;47.662;8.878;2022-09-01T05:49:52;10.65;;;6.40;;
69207;SDS011;56321;47.662;8.878;2022-09-01T05:52:19;11.37;;;7.00;;
69207;SDS011;56321;47.662;8.878;2022-09-01T05:54:48;11.60;;;6.57;;
69207;SDS011;56321;47.662;8.878;2022-09-01T05:57:15;11.77;;;6.90;;
69207;SDS011;56321;47.662;8.878;2022-09-01T05:59:41;11.40;;;7.28;;
69207;SDS011;56321;47.662;8.878;2022-09-01T06:02:07;10.27;;;6.00;;
69207;SDS011;56321;47.662;8.878;2022-09-01T06:04:33;11.75;;;6.80;;
69207;SDS011;56321;47.662;8.878;2022-09-01T06:06:59;11.98;;;6.63;;
69207;SDS011;56321;47.662;8.878;2022-09-01T06:09:26;10.37;;;5.90;;
69207;SDS011;56321;47.662;8.878;2022-09-01T06:11:51;9.73;;;5.57;;
69207;SDS011;56321;47.662;8.878;2022-09-01T06:14:19;11.20;;;6.80;;
69207;SDS011;56321;47.662;8.878;2022-09-01T06:16:44;10.48;;;5.82;;
69207;SDS011;56321;47.662;8.878;2022-09-01T06:19:11;10.20;;;5.97;;
69207;SDS011;56321;47.662;8.878;2022-09-01T06:21:37;10.63;;;5.90;;
69207;SDS011;56321;47.662;8.878;2022-09-01T06:24:03;10.77;;;5.85;;
69207;SDS011;56321;47.662;8.878;2022-09-01T06:26:32;10.85;;;6.50;;
69207;SDS011;56321;47.662;8.878;2022-09-01T06:29:01;10.37;;;5.93;;
69207;SDS011;56321;47.662;8.878;2022-09-01T06:31:33;11.00;;;6.00;;
69207;SDS011;56321;47.662;8.878;2022-09-01T06:34:03;12.60;;;6.45;;
69207;SDS011;56321;47.662;8.878;2022-09-01T06:36:30;9.27;;;5.50;;
69207;SDS011;56321;47.662;8.878;2022-09-01T06:38:56;9.70;;;5.70;;
69207;SDS011;56321;47.662;8.878;2022-09-01T06:41:24;9.82;;;5.60;;
69207;SDS011;56321;47.662;8.878;2022-09-01T06:43:51;9.18;;;5.45;;
69207;SDS011;56321;47.662;8.878;2022-09-01T06:46:18;10.15;;;5.70;;
69207;SDS011;56321;47.662;8.878;2022-09-01T06:48:45;9.50;;;5.40;;
69207;SDS011;56321;47.662;8.878;2022-09-01T06:51:15;10.37;;;6.13;;
69207;SDS011;56321;47.662;8.878;2022-09-01T06:53:44;9.27;;;5.03;;
69207;SDS011;56321;47.662;8.878;2022-09-01T06:56:15;10.30;;;5.78;;
69207;SDS011;56321;47.662;8.878;2022-09-01T06:58:43;10.50;;;5.50;;
69207;SDS011;56321;47.662;8.878;2022-09-01T07:01:12;9.50;;;5.35;;
69207;SDS011;56321;47.662;8.878;2022-09-01T07:03:42;10.07;;;6.07;;
69207;SDS011;56321;47.662;8.878;2022-09-01T07:06:08;9.90;;;5.22;;
69207;SDS011;56321;47.662;8.878;2022-09-01T07:08:35;10.07;;;5.30;;
69207;SDS011;56321;47.662;8.878;2022-09-01T07:11:06;10.40;;;5.90;;
69207;SDS011;56321;47.662;8.878;2022-09-01T07:13:33;9.68;;;5.68;;
69207;SDS011;56321;47.662;8.878;2022-09-01T07:16:00;9.80;;;6.07;;
69207;SDS011;56321;47.662;8.878;2022-09-01T07:18:29;8.95;;;5.25;;
69207;SDS011;56321;47.662;8.878;2022-09-01T07:20:55;9.73;;;5.30;;
69207;SDS011;56321;47.662;8.878;2022-09-01T07:23:21;9.20;;;5.07;;
69207;SDS011;56321;47.662;8.878;2022-09-01T07:25:49;9.60;;;5.67;;
69207;SDS011;56321;47.662;8.878;2022-09-01T07:28:19;9.55;;;5.30;;
69207;SDS011;56321;47.662;8.878;2022-09-01T07:30:49;9.82;;;5.13;;
69207;SDS011;56321;47.662;8.878;2022-09-01T07:33:18;8.55;;;4.85;;
69207;SDS011;56321;47.662;8.878;2022-09-01T07:35:47;10.15;;;4.68;;
69207;SDS011;56321;47.662;8.878;2022-09-01T07:38:13;8.27;;;4.67;;
69207;SDS011;56321;47.662;8.878;2022-09-01T07:40:40;8.65;;;5.03;;
69207;SDS011;56321;47.662;8.878;2022-09-01T07:43:07;8.90;;;4.80;;
69207;SDS011;56321;47.662;8.878;2022-09-01T07:45:42;8.13;;;4.63;;
69207;SDS011;56321;47.662;8.878;2022-09-01T07:48:11;9.18;;;4.75;;
69207;SDS011;56321;47.662;8.878;2022-09-01T07:50:39;8.70;;;4.23;;
69207;SDS011;56321;47.662;8.878;2022-09-01T07:53:11;7.60;;;4.40;;
69207;SDS011;56321;47.662;8.878;2022-09-01T07:55:39;9.20;;;4.80;;
69207;SDS011;56321;47.662;8.878;2022-09-01T07:58:08;8.48;;;4.50;;
69207;SDS011;56321;47.662;8.878;2022-09-01T08:00:33;8.50;;;4.50;;
69207;SDS011;56321;47.662;8.878;2022-09-01T08:02:58;8.73;;;4.50;;
69207;SDS011;56321;47.662;8.878;2022-09-01T08:05:24;8.60;;;4.53;;
69207;SDS011;56321;47.662;8.878;2022-09-01T08:07:51;7.28;;;3.97;;
69207;SDS011;56321;47.662;8.878;2022-09-01T08:10:17;7.22;;;4.03;;
69207;SDS011;56321;47.662;8.878;2022-09-01T08:12:42;8.20;;;4.20;;
69207;SDS011;56321;47.662;8.878;2022-09-01T08:15:08;8.07;;;4.33;;
69207;SDS011;56321;47.662;8.878;2022-09-01T08:17:36;7.80;;;4.20;;
69207;SDS011;56321;47.662;8.878;2022-09-01T08:20:02;7.10;;;3.90;;
69207;SDS011;56321;47.662;8.878;2022-09-01T08:22:31;7.47;;;3.97;;
69207;SDS011;56321;47.662;8.878;2022-09-01T08:24:56;8.10;;;4.03;;
69207;SDS011;56321;47.662;8.878;2022-09-01T08:27:21;7.43;;;3.90;;
69207;SDS011;56321;47.662;8.878;2022-09-01T08:29:47;6.70;;;3.73;;
69207;SDS011;56321;47.662;8.878;2022-09-01T08:32:12;7.10;;;3.92;;
69207;SDS011;56321;47.662;8.878;2022-09-01T08:34:38;7.30;;;3.93;;
69207;SDS011;56321;47.662;8.878;2022-09-01T08:37:04;7.87;;;4.03;;
69207;SDS011;56321;47.662;8.878;2022-09-01T08:39:29;7.50;;;3.60;;
69207;SDS011;56321;47.662;8.878;2022-09-01T08:47:23;7.25;;;3.70;;
69207;SDS011;56321;47.662;8.878;2022-09-01T08:49:49;7.43;;;3.80;;
69207;SDS011;56321;47.662;8.878;2022-09-01T08:52:20;6.65;;;3.60;;
69207;SDS011;56321;47.662;8.878;2022-09-01T08:54:56;6.80;;;3.38;;
69207;SDS011;56321;47.662;8.878;2022-09-01T08:57:40;6.95;;;3.60;;
69207;SDS011;56321;47.662;8.878;2022-09-01T09:00:09;7.50;;;3.30;;
69207;SDS011;56321;47.662;8.878;2022-09-01T09:10:36;7.18;;;3.45;;
69207;SDS011;56321;47.662;8.878;2022-09-01T09:16:00;7.10;;;3.35;;
69207;SDS011;56321;47.662;8.878;2022-09-01T09:18:46;6.70;;;3.30;;
69207;SDS011;56321;47.662;8.878;2022-09-01T09:21:17;5.97;;;2.90;;
69207;SDS011;56321;47.662;8.878;2022-09-01T09:23:58;6.32;;;3.20;;
69207;SDS011;56321;47.662;8.878;2022-09-01T09:26:30;6.15;;;2.72;;
69207;SDS011;56321;47.662;8.878;2022-09-01T09:28:56;5.77;;;2.77;;
69207;SDS011;56321;47.662;8.878;2022-09-01T09:31:26;7.35;;;3.25;;
69207;SDS011;56321;47.662;8.878;2022-09-01T09:33:52;6.47;;;2.90;;
69207;SDS011;56321;47.662;8.878;2022-09-01T09:36:21;5.82;;;2.78;;
69207;SDS011;56321;47.662;8.878;2022-09-01T09:41:38;6.85;;;3.03;;
69207;SDS011;56321;47.662;8.878;2022-09-01T09:44:16;6.17;;;2.70;;
69207;SDS011;56321;47.662;8.878;2022-09-01T09:46:46;5.70;;;2.50;;
69207;SDS011;56321;47.662;8.878;2022-09-01T09:51:46;6.25;;;2.75;;
69207;SDS011;56321;47.662;8.878;2022-09-01T09:54:24;5.47;;;2.33;;
69207;SDS011;56321;47.662;8.878;2022-09-01T09:57:04;6.45;;;2.70;;
69207;SDS011;56321;47.662;8.878;2022-09-01T10:01:58;6.20;;;2.70;;
69207;SDS011;56321;47.662;8.878;2022-09-01T10:04:38;5.63;;;2.40;;
69207;SDS011;56321;47.662;8.878;2022-09-01T10:09:56;5.50;;;2.43;;
69207;SDS011;56321;47.662;8.878;2022-09-01T10:12:25;5.90;;;2.75;;
69207;SDS011;56321;47.662;8.878;2022-09-01T10:14:53;5.60;;;2.72;;
69207;SDS011;56321;47.662;8.878;2022-09-01T10:17:24;6.15;;;2.70;;
69207;SDS011;56321;47.662;8.878;2022-09-01T10:19:55;5.93;;;2.70;;
69207;SDS011;56321;47.662;8.878;2022-09-01T10:22:29;5.40;;;2.43;;
69207;SDS011;56321;47.662;8.878;2022-09-01T10:24:56;5.22;;;2.45;;
69207;SDS011;56321;47.662;8.878;2022-09-01T10:27:24;5.80;;;2.70;;
69207;SDS011;56321;47.662;8.878;2022-09-01T10:30:02;5.40;;;2.72;;
69207;SDS011;56321;47.662;8.878;2022-09-01T10:32:32;6.75;;;2.42;;
69207;SDS011;56321;47.662;8.878;2022-09-01T10:35:03;5.47;;;2.67;;
69207;SDS011;56321;47.662;8.878;2022-09-01T10:37:29;5.63;;;2.45;;
69207;SDS011;56321;47.662;8.878;2022-09-01T10:42:40;5.82;;;2.80;;
69207;SDS011;56321;47.662;8.878;2022-09-01T10:45:18;5.35;;;2.70;;
69207;SDS011;56321;47.662;8.878;2022-09-01T10:47:54;5.87;;;2.70;;
69207;SDS011;56321;47.662;8.878;2022-09-01T10:50:24;6.20;;;2.90;;
69207;SDS011;56321;47.662;8.878;2022-09-01T10:52:57;5.73;;;2.90;;
69207;SDS011;56321;47.662;8.878;2022-09-01T10:55:26;5.65;;;2.90;;
69207;SDS011;56321;47.662;8.878;2022-09-01T11:06:08;5.57;;;3.10;;
69207;SDS011;56321;47.662;8.878;2022-09-01T11:11:00;5.67;;;3.17;;
69207;SDS011;56321;47.662;8.878;2022-09-01T11:13:59;5.33;;;2.93;;
69207;SDS011;56321;47.662;8.878;2022-09-01T11:18:55;5.30;;;2.90;;
69207;SDS011;56321;47.662;8.878;2022-09-01T11:21:45;5.30;;;2.80;;
69207;SDS011;56321;47.662;8.878;2022-09-01T11:27:06;5.07;;;2.40;;
69207;SDS011;56321;47.662;8.878;2022-09-01T11:32:24;5.82;;;2.70;;
69207;SDS011;56321;47.662;8.878;2022-09-01T11:34:56;5.35;;;2.75;;
69207;SDS011;56321;47.662;8.878;2022-09-01T11:37:24;5.97;;;2.63;;
69207;SDS011;56321;47.662;8.878;2022-09-01T11:39:51;5.90;;;2.90;;
69207;SDS011;56321;47.662;8.878;2022-09-01T11:42:41;5.90;;;3.05;;
69207;SDS011;56321;47.662;8.878;2022-09-01T11:45:18;6.00;;;3.05;;
69207;SDS011;56321;47.662;8.878;2022-09-01T11:47:51;5.57;;;3.15;;
69207;SDS011;56321;47.662;8.878;2022-09-01T11:50:33;6.40;;;3.50;;
69207;SDS011;56321;47.662;8.878;2022-09-01T11:55:35;5.20;;;3.05;;
69207;SDS011;56321;47.662;8.878;2022-09-01T11:58:10;5.68;;;2.88;;
69207;SDS011;56321;47.662;8.878;2022-09-01T12:00:37;5.60;;;3.38;;
69207;SDS011;56321;47.662;8.878;2022-09-01T12:03:04;5.57;;;3.20;;
69207;SDS011;56321;47.662;8.878;2022-09-01T12:05:44;6.25;;;3.13;;
69207;SDS011;56321;47.662;8.878;2022-09-01T12:08:15;5.38;;;3.17;;
69207;SDS011;56321;47.662;8.878;2022-09-01T12:10:45;5.60;;;2.90;;
69207;SDS011;56321;47.662;8.878;2022-09-01T12:13:19;5.57;;;2.90;;
69207;SDS011;56321;47.662;8.878;2022-09-01T12:15:57;6.20;;;3.10;;
69207;SDS011;56321;47.662;8.878;2022-09-01T12:18:26;5.80;;;3.25;;
69207;SDS011;56321;47.662;8.878;2022-09-01T12:20:56;5.55;;;3.10;;
69207;SDS011;56321;47.662;8.878;2022-09-01T12:23:26;5.50;;;2.63;;
69207;SDS011;56321;47.662;8.878;2022-09-01T12:26:05;5.65;;;2.50;;
69207;SDS011;56321;47.662;8.878;2022-09-01T12:28:34;5.23;;;2.70;;
69207;SDS011;56321;47.662;8.878;2022-09-01T12:31:03;5.47;;;2.88;;
69207;SDS011;56321;47.662;8.878;2022-09-01T12:33:31;5.35;;;2.90;;
69207;SDS011;56321;47.662;8.878;2022-09-01T12:38:53;5.10;;;2.67;;
69207;SDS011;56321;47.662;8.878;2022-09-01T12:41:24;5.60;;;2.77;;
69207;SDS011;56321;47.662;8.878;2022-09-01T12:46:59;5.20;;;2.67;;
69207;SDS011;56321;47.662;8.878;2022-09-01T12:54:35;6.30;;;2.70;;
69207;SDS011;56321;47.662;8.878;2022-09-01T12:57:01;5.50;;;2.65;;
69207;SDS011;56321;47.662;8.878;2022-09-01T12:59:26;5.77;;;2.40;;
69207;SDS011;56321;47.662;8.878;2022-09-01T13:01:52;5.27;;;2.60;;
69207;SDS011;56321;47.662;8.878;2022-09-01T13:06:49;5.10;;;2.40;;
69207;SDS011;56321;47.662;8.878;2022-09-01T13:09:15;5.88;;;2.50;;
69207;SDS011;56321;47.662;8.878;2022-09-01T13:11:41;5.20;;;2.53;;
69207;SDS011;56321;47.662;8.878;2022-09-01T13:14:07;5.60;;;2.70;;
69207;SDS011;56321;47.662;8.878;2022-09-01T13:16:34;5.40;;;2.40;;
69207;SDS011;56321;47.662;8.878;2022-09-01T13:19:01;5.18;;;2.38;;
69207;SDS011;56321;47.662;8.878;2022-09-01T13:21:26;5.67;;;2.77;;
69207;SDS011;56321;47.662;8.878;2022-09-01T13:23:52;5.43;;;2.78;;
69207;SDS011;56321;47.662;8.878;2022-09-01T13:26:18;5.17;;;2.40;;
69207;SDS011;56321;47.662;8.878;2022-09-01T13:28:44;5.30;;;2.72;;
69207;SDS011;56321;47.662;8.878;2022-09-01T13:31:09;5.60;;;2.58;;
69207;SDS011;56321;47.662;8.878;2022-09-01T13:33:36;5.10;;;2.53;;
69207;SDS011;56321;47.662;8.878;2022-09-01T13:36:02;5.45;;;2.55;;
69207;SDS011;56321;47.662;8.878;2022-09-01T13:38:28;5.40;;;2.25;;
69207;SDS011;56321;47.662;8.878;2022-09-01T13:40:55;5.20;;;2.50;;
69207;SDS011;56321;47.662;8.878;2022-09-01T13:43:21;5.10;;;2.53;;
69207;SDS011;56321;47.662;8.878;2022-09-01T13:45:48;5.80;;;2.57;;
69207;SDS011;56321;47.662;8.878;2022-09-01T13:48:14;5.60;;;2.38;;
69207;SDS011;56321;47.662;8.878;2022-09-01T13:50:40;5.28;;;2.60;;
69207;SDS011;56321;47.662;8.878;2022-09-01T13:53:07;5.40;;;2.40;;
69207;SDS011;56321;47.662;8.878;2022-09-01T13:55:34;5.80;;;2.60;;
69207;SDS011;56321;47.662;8.878;2022-09-01T13:58:03;5.55;;;2.88;;
69207;SDS011;56321;47.662;8.878;2022-09-01T14:00:30;6.07;;;2.30;;
69207;SDS011;56321;47.662;8.878;2022-09-01T14:02:59;5.20;;;2.58;;
69207;SDS011;56321;47.662;8.878;2022-09-01T14:05:29;5.78;;;2.58;;
69207;SDS011;56321;47.662;8.878;2022-09-01T14:07:56;5.25;;;2.40;;
69207;SDS011;56321;47.662;8.878;2022-09-01T14:10:23;6.27;;;2.60;;
69207;SDS011;56321;47.662;8.878;2022-09-01T14:12:50;5.40;;;2.90;;
69207;SDS011;56321;47.662;8.878;2022-09-01T14:15:16;5.55;;;2.55;;
69207;SDS011;56321;47.662;8.878;2022-09-01T14:17:43;5.95;;;3.05;;
69207;SDS011;56321;47.662;8.878;2022-09-01T14:20:17;5.23;;;2.67;;
69207;SDS011;56321;47.662;8.878;2022-09-01T14:22:45;6.10;;;2.53;;
69207;SDS011;56321;47.662;8.878;2022-09-01T14:25:11;5.50;;;2.70;;
69207;SDS011;56321;47.662;8.878;2022-09-01T14:27:37;5.22;;;2.38;;
69207;SDS011;56321;47.662;8.878;2022-09-01T14:30:04;5.30;;;2.03;;
69207;SDS011;56321;47.662;8.878;2022-09-01T14:32:31;5.10;;;2.50;;
69207;SDS011;56321;47.662;8.878;2022-09-01T14:34:57;5.53;;;2.55;;
69207;SDS011;56321;47.662;8.878;2022-09-01T14:37:23;5.75;;;2.60;;
69207;SDS011;56321;47.662;8.878;2022-09-01T14:39:49;5.17;;;2.37;;
69207;SDS011;56321;47.662;8.878;2022-09-01T14:42:20;5.32;;;2.50;;
69207;SDS011;56321;47.662;8.878;2022-09-01T14:44:49;5.45;;;2.67;;
69207;SDS011;56321;47.662;8.878;2022-09-01T14:47:15;5.63;;;2.50;;
69207;SDS011;56321;47.662;8.878;2022-09-01T14:49:41;9.13;;;3.23;;
69207;SDS011;56321;47.662;8.878;2022-09-01T14:52:07;6.32;;;2.75;;
69207;SDS011;56321;47.662;8.878;2022-09-01T14:54:33;5.60;;;2.50;;
69207;SDS011;56321;47.662;8.878;2022-09-01T14:56:59;5.35;;;2.40;;
69207;SDS011;56321;47.662;8.878;2022-09-01T14:59:26;6.40;;;2.70;;
69207;SDS011;56321;47.662;8.878;2022-09-01T15:01:52;5.15;;;2.45;;
69207;SDS011;56321;47.662;8.878;2022-09-01T15:04:17;5.70;;;2.60;;
69207;SDS011;56321;47.662;8.878;2022-09-01T15:06:43;5.50;;;2.80;;
69207;SDS011;56321;47.662;8.878;2022-09-01T15:09:08;6.37;;;2.70;;
69207;SDS011;56321;47.662;8.878;2022-09-01T15:11:34;5.70;;;2.90;;
69207;SDS011;56321;47.662;8.878;2022-09-01T15:13:59;5.82;;;2.70;;
69207;SDS011;56321;47.662;8.878;2022-09-01T15:16:25;5.43;;;2.60;;
69207;SDS011;56321;47.662;8.878;2022-09-01T15:18:52;5.82;;;2.90;;
69207;SDS011;56321;47.662;8.878;2022-09-01T15:21:22;5.60;;;2.70;;
69207;SDS011;56321;47.662;8.878;2022-09-01T15:23:49;5.20;;;2.47;;
69207;SDS011;56321;47.662;8.878;2022-09-01T15:26:16;6.57;;;2.90;;
69207;SDS011;56321;47.662;8.878;2022-09-01T15:28:42;6.22;;;3.00;;
69207;SDS011;56321;47.662;8.878;2022-09-01T15:31:09;5.82;;;2.70;;
69207;SDS011;56321;47.662;8.878;2022-09-01T15:33:37;6.03;;;2.83;;
69207;SDS011;56321;47.662;8.878;2022-09-01T15:36:04;5.97;;;2.73;;
69207;SDS011;56321;47.662;8.878;2022-09-01T15:38:29;6.22;;;3.20;;
69207;SDS011;56321;47.662;8.878;2022-09-01T15:40:55;5.93;;;3.27;;
69207;SDS011;56321;47.662;8.878;2022-09-01T15:43:21;5.77;;;3.03;;
69207;SDS011;56321;47.662;8.878;2022-09-01T15:45:46;6.43;;;3.10;;
69207;SDS011;56321;47.662;8.878;2022-09-01T15:48:12;5.85;;;2.95;;
69207;SDS011;56321;47.662;8.878;2022-09-01T15:50:38;5.83;;;3.17;;
69207;SDS011;56321;47.662;8.878;2022-09-01T15:53:03;6.10;;;3.37;;
69207;SDS011;56321;47.662;8.878;2022-09-01T15:55:43;6.20;;;3.47;;
69207;SDS011;56321;47.662;8.878;2022-09-01T15:58:11;5.82;;;3.00;;
69207;SDS011;56321;47.662;8.878;2022-09-01T16:00:39;6.88;;;3.35;;
69207;SDS011;56321;47.662;8.878;2022-09-01T16:03:05;6.00;;;3.10;;